Time;durP1;ratioP1;P1;durP2;ratioP2;P2;SDS_P1;SDS_P2;PMS_P1;PMS_P2;Temp;Humidity;BMP_temperature;BMP_pressure;BME280_temperature;BME280_humidity;BME280_pressure;Samples;Min_cycle;Max_cycle;Signal;HPM_P1;HPM_P2
2021/06/27 00:00:43;;;;;;;1999.90;999.90;;;20.80;99.90;;;;;;5031487;28;20765;-72
2021/06/27 00:03:12;;;;;;;1999.90;999.90;;;20.80;99.90;;;;;;5031472;28;20416;-72
2021/06/27 00:05:39;;;;;;;1999.90;999.90;;;20.80;99.90;;;;;;5031194;28;20791;-71
2021/06/27 00:08:06;;;;;;;1999.90;999.90;;;20.70;99.90;;;;;;5031458;28;20403;-72
2021/06/27 00:10:36;;;;;;;1999.90;999.90;;;20.70;99.90;;;;;;5031451;28;20802;-72
2021/06/27 00:13:02;;;;;;;1999.90;999.90;;;20.70;99.90;;;;;;5031537;28;20451;-72
2021/06/27 00:15:32;;;;;;;1999.90;999.90;;;20.60;99.90;;;;;;5031078;28;20421;-72
2021/06/27 00:18:00;;;;;;;1999.90;999.90;;;20.50;99.90;;;;;;5034000;28;20492;-72
2021/06/27 00:20:29;;;;;;;1999.90;999.90;;;20.40;99.90;;;;;;5034567;28;21045;-72
2021/06/27 00:22:55;;;;;;;1999.90;999.90;;;20.40;99.90;;;;;;5034673;28;20912;-72
2021/06/27 00:25:24;;;;;;;1999.90;999.90;;;20.30;99.90;;;;;;5034512;28;20789;-72
2021/06/27 00:27:51;;;;;;;1999.90;999.90;;;20.30;99.90;;;;;;5034586;28;20907;-70
2021/06/27 00:30:19;;;;;;;1999.90;999.90;;;20.30;99.90;;;;;;5034514;28;20434;-72
2021/06/27 00:32:45;;;;;;;1999.90;999.90;;;20.20;99.90;;;;;;5034551;28;20413;-72
2021/06/27 00:35:13;;;;;;;1999.90;999.90;;;20.40;99.90;;;;;;5034336;28;20823;-72
2021/06/27 00:37:39;;;;;;;1999.90;999.90;;;20.30;99.90;;;;;;5034421;28;20405;-71
2021/06/27 00:40:09;;;;;;;1999.90;999.90;;;20.30;99.90;;;;;;5034396;28;20429;-71
2021/06/27 00:42:35;;;;;;;1999.90;999.90;;;20.20;99.90;;;;;;5034501;28;20496;-71
2021/06/27 00:45:02;;;;;;;1999.90;999.90;;;20.20;99.90;;;;;;5034165;28;20948;-71
2021/06/27 00:47:32;;;;;;;1999.90;999.90;;;20.10;99.90;;;;;;5034262;28;20172;-72
2021/06/27 00:49:58;;;;;;;1999.90;999.90;;;20.00;99.90;;;;;;5034196;28;20426;-72
2021/06/27 00:52:24;;;;;;;1999.90;999.90;;;20.00;99.90;;;;;;5034190;28;20468;-72
2021/06/27 00:54:50;;;;;;;1999.90;999.90;;;20.00;99.90;;;;;;5033861;28;20207;-72
2021/06/27 00:57:16;;;;;;;1999.90;999.90;;;19.90;99.90;;;;;;5034086;28;20422;-71
2021/06/27 00:59:42;;;;;;;1999.90;999.90;;;19.80;99.90;;;;;;5034029;28;20229;-72
2021/06/27 01:02:08;;;;;;;1999.90;999.90;;;19.70;99.90;;;;;;5034107;28;20179;-71
2021/06/27 01:04:36;;;;;;;1999.90;999.90;;;19.60;99.90;;;;;;5033866;28;21026;-71
2021/06/27 01:07:01;;;;;;;1999.90;999.90;;;19.50;99.90;;;;;;5034042;28;20196;-72
2021/06/27 01:09:27;;;;;;;1999.90;999.90;;;19.40;99.90;;;;;;5033976;28;20479;-72
2021/06/27 01:11:52;;;;;;;1999.90;999.90;;;19.50;99.90;;;;;;5033784;28;20199;-72
2021/06/27 01:14:19;;;;;;;1999.90;999.90;;;19.40;99.90;;;;;;5033569;28;20668;-72
2021/06/27 01:16:45;;;;;;;1999.90;999.90;;;19.40;99.90;;;;;;5033770;28;20182;-72
2021/06/27 01:19:10;;;;;;;1999.90;999.90;;;19.40;99.90;;;;;;5033820;28;20413;-72
2021/06/27 01:21:36;;;;;;;1999.90;999.90;;;19.40;99.90;;;;;;5033710;28;20251;-71
2021/06/27 01:24:04;;;;;;;1999.90;999.90;;;19.30;99.90;;;;;;5033554;28;20204;-71
2021/06/27 01:26:29;;;;;;;1999.90;999.90;;;19.20;99.90;;;;;;5032812;28;20987;-72
2021/06/27 01:28:56;;;;;;;1999.90;999.90;;;19.10;99.90;;;;;;5033370;28;20408;-71
2021/06/27 01:31:25;;;;;;;1999.90;999.90;;;19.00;99.90;;;;;;5033369;28;20281;-72
2021/06/27 01:33:51;;;;;;;1999.90;999.90;;;19.00;99.90;;;;;;5033274;28;20460;-71
2021/06/27 01:36:16;;;;;;;1999.90;999.90;;;18.90;99.90;;;;;;5033293;28;20496;-72
2021/06/27 01:38:42;;;;;;;1999.90;999.90;;;19.00;99.90;;;;;;5033316;28;20509;-71
2021/06/27 01:41:08;;;;;;;1999.90;999.90;;;19.00;99.90;;;;;;5033240;28;20194;-72
2021/06/27 01:43:33;;;;;;;1999.90;999.90;;;19.00;99.90;;;;;;5033400;28;20176;-72
2021/06/27 01:46:01;;;;;;;1999.90;999.90;;;19.10;99.90;;;;;;5033188;28;20192;-72
2021/06/27 01:48:28;;;;;;;1999.90;999.90;;;19.10;99.90;;;;;;5033331;28;20186;-72
2021/06/27 01:50:56;;;;;;;1999.90;999.90;;;19.10;99.90;;;;;;5033202;28;20427;-71
2021/06/27 01:53:25;;;;;;;1999.90;999.90;;;19.10;99.90;;;;;;5033232;28;21135;-72
2021/06/27 01:56:04;;;;;;;1999.90;999.90;;;19.00;99.90;;;;;;5032971;28;20404;-72
2021/06/27 01:58:31;;;;;;;1999.90;999.90;;;19.00;99.90;;;;;;5033187;28;20410;-71
2021/06/27 02:00:58;;;;;;;1999.90;999.90;;;18.90;99.90;;;;;;5032830;28;20914;-71
2021/06/27 02:03:23;;;;;;;1999.90;999.90;;;18.90;99.90;;;;;;5032928;28;20411;-72
2021/06/27 02:05:49;;;;;;;1999.90;999.90;;;18.90;99.90;;;;;;5032625;28;20465;-71
2021/06/27 02:08:15;;;;;;;1999.90;999.90;;;18.90;99.90;;;;;;5033090;28;20653;-71
2021/06/27 02:10:40;;;;;;;1999.90;999.90;;;18.90;99.90;;;;;;5032691;28;20427;-71
2021/06/27 02:13:07;;;;;;;1999.90;999.90;;;18.90;99.90;;;;;;5032639;28;20567;-71
2021/06/27 02:15:32;;;;;;;1999.90;999.90;;;18.80;99.90;;;;;;5031254;28;20183;-72
2021/06/27 02:18:07;;;;;;;1999.90;999.90;;;18.90;99.90;;;;;;5032917;28;20412;-72
2021/06/27 02:20:33;;;;;;;1999.90;999.90;;;18.80;99.90;;;;;;5032491;28;20246;-70
2021/06/27 02:22:58;;;;;;;1999.90;999.90;;;18.80;99.90;;;;;;5032691;28;20446;-72
2021/06/27 02:25:24;;;;;;;1999.90;999.90;;;18.70;99.90;;;;;;5032214;28;20272;-72
2021/06/27 02:27:49;;;;;;;1999.90;999.90;;;18.80;99.90;;;;;;5032661;28;20263;-71
2021/06/27 02:30:16;;;;;;;1999.90;999.90;;;18.80;99.90;;;;;;5032406;28;20203;-71
2021/06/27 02:32:41;;;;;;;1999.90;999.90;;;18.90;99.90;;;;;;5032366;28;20205;-72
2021/06/27 02:35:08;;;;;;;1999.90;999.90;;;18.90;99.90;;;;;;5032258;28;20928;-70
2021/06/27 02:37:34;;;;;;;1999.90;999.90;;;18.90;99.90;;;;;;5032364;28;20408;-72
2021/06/27 02:40:00;;;;;;;1999.90;999.90;;;19.00;99.90;;;;;;5031826;28;20441;-72
2021/06/27 02:42:26;;;;;;;1999.90;999.90;;;19.00;99.90;;;;;;5032584;28;20502;-71
2021/06/27 02:44:51;;;;;;;1999.90;999.90;;;18.90;99.90;;;;;;5031994;28;20896;-72
2021/06/27 02:47:17;;;;;;;1999.90;999.90;;;18.70;99.90;;;;;;5032122;28;20415;-72
2021/06/27 02:49:43;;;;;;;1999.90;999.90;;;18.70;99.90;;;;;;5032026;28;20173;-72
2021/06/27 02:52:09;;;;;;;1999.90;999.90;;;18.70;99.90;;;;;;5032086;28;20178;-72
2021/06/27 02:54:35;;;;;;;1999.90;999.90;;;18.70;99.90;;;;;;5031745;28;20455;-72
2021/06/27 02:57:00;;;;;;;1999.90;999.90;;;18.60;99.90;;;;;;5032062;28;20411;-72
2021/06/27 02:59:26;;;;;;;1999.90;999.90;;;18.50;99.90;;;;;;5032054;28;20647;-72
2021/06/27 03:01:52;;;;;;;1999.90;999.90;;;18.50;99.90;;;;;;5031898;28;20188;-71
2021/06/27 03:04:17;;;;;;;1999.90;999.90;;;18.50;99.90;;;;;;5031687;28;20175;-72
2021/06/27 03:06:43;;;;;;;1999.90;999.90;;;18.60;99.90;;;;;;5031962;28;20243;-72
2021/06/27 03:09:08;;;;;;;1999.90;999.90;;;18.60;99.90;;;;;;5031807;28;20261;-71
2021/06/27 03:11:34;;;;;;;1999.90;999.90;;;18.60;99.90;;;;;;5031693;28;20251;-70
2021/06/27 03:14:00;;;;;;;1999.90;999.90;;;18.60;99.90;;;;;;5031504;28;20249;-72
2021/06/27 03:16:25;;;;;;;1999.90;999.90;;;18.60;99.90;;;;;;5031785;28;20170;-72
2021/06/27 03:18:51;;;;;;;1999.90;999.90;;;18.50;99.90;;;;;;5031747;28;20695;-71
2021/06/27 03:21:16;;;;;;;1999.90;999.90;;;18.50;99.90;;;;;;5031612;28;20208;-71
2021/06/27 03:23:42;;;;;;;1999.90;999.90;;;18.50;99.90;;;;;;5031577;28;20546;-72
2021/06/27 03:26:08;;;;;;;1999.90;999.90;;;18.50;99.90;;;;;;5031495;28;20170;-71
2021/06/27 03:28:35;;;;;;;1999.90;999.90;;;18.50;99.90;;;;;;5031684;28;20202;-72
2021/06/27 03:31:01;;;;;;;1999.90;999.90;;;18.50;99.90;;;;;;5031682;28;20201;-71
2021/06/27 03:33:27;;;;;;;1999.90;999.90;;;18.50;99.90;;;;;;5031524;28;20450;-71
2021/06/27 03:35:54;;;;;;;1999.90;999.90;;;18.70;99.90;;;;;;5031315;28;20471;-71
2021/06/27 03:38:38;;;;;;;1999.90;999.90;;;18.70;99.90;;;;;;5031507;28;20545;-72
2021/06/27 03:41:04;;;;;;;1999.90;999.90;;;18.70;99.90;;;;;;5031506;28;20436;-72
2021/06/27 03:43:30;;;;;;;1999.90;999.90;;;18.70;99.90;;;;;;5031956;28;20459;-71
2021/06/27 03:45:55;;;;;;;1999.90;999.90;;;18.80;99.90;;;;;;5031239;28;20520;-71
2021/06/27 03:48:21;;;;;;;1999.90;999.90;;;18.80;99.90;;;;;;5031533;28;20235;-71
2021/06/27 03:50:46;;;;;;;1999.90;999.90;;;18.80;99.90;;;;;;5031404;28;20561;-71
2021/06/27 03:53:12;;;;;;;1999.90;999.90;;;18.90;99.90;;;;;;5034572;28;20208;-71
2021/06/27 03:55:38;;;;;;;1999.90;999.90;;;18.90;99.90;;;;;;5035012;28;20543;-71
2021/06/27 03:58:04;;;;;;;1999.90;999.90;;;19.00;99.90;;;;;;5035182;28;20400;-71
2021/06/27 04:00:29;;;;;;;1999.90;999.90;;;19.00;99.90;;;;;;5035168;28;20189;-71
2021/06/27 04:02:55;;;;;;;1999.90;999.90;;;19.00;99.90;;;;;;5035126;28;20249;-71
2021/06/27 04:05:20;;;;;;;1999.90;999.90;;;19.00;99.90;;;;;;5034809;28;20175;-71
2021/06/27 04:07:46;;;;;;;1999.90;999.90;;;19.00;99.90;;;;;;5034921;28;20168;-71
2021/06/27 04:10:12;;;;;;;1999.90;999.90;;;19.00;99.90;;;;;;5034984;28;20280;-71
2021/06/27 04:12:38;;;;;;;1999.90;999.90;;;19.00;99.90;;;;;;5034883;28;20264;-71
2021/06/27 04:15:05;;;;;;;1999.90;999.90;;;19.00;99.90;;;;;;5034546;28;20443;-70
2021/06/27 04:17:31;;;;;;;1999.90;999.90;;;19.00;99.90;;;;;;5034860;28;20169;-71
2021/06/27 04:19:57;;;;;;;1999.90;999.90;;;19.00;99.90;;;;;;5034537;28;20435;-71
2021/06/27 04:22:23;;;;;;;1999.90;999.90;;;19.00;99.90;;;;;;5034698;28;20183;-71
2021/06/27 04:24:48;;;;;;;1999.90;999.90;;;19.00;99.90;;;;;;5034612;28;20649;-71
2021/06/27 04:27:14;;;;;;;1999.90;999.90;;;19.00;99.90;;;;;;5034633;28;20553;-72
2021/06/27 04:29:39;;;;;;;1999.90;999.90;;;18.90;99.90;;;;;;5034663;28;20178;-71
2021/06/27 04:32:05;;;;;;;1999.90;999.90;;;18.90;99.90;;;;;;5034630;28;20273;-71
2021/06/27 04:34:32;;;;;;;1999.90;999.90;;;18.90;99.90;;;;;;5034132;28;20210;-72
2021/06/27 04:36:58;;;;;;;1999.90;999.90;;;18.90;99.90;;;;;;5034421;28;20486;-71
2021/06/27 04:39:24;;;;;;;1999.90;999.90;;;18.90;99.90;;;;;;5034439;28;20423;-71
2021/06/27 04:41:49;;;;;;;1999.90;999.90;;;18.90;99.90;;;;;;5034267;28;20427;-71
2021/06/27 04:44:15;;;;;;;1999.90;999.90;;;18.80;99.90;;;;;;5034107;28;20260;-71
2021/06/27 04:46:41;;;;;;;1999.90;999.90;;;18.80;99.90;;;;;;5034239;28;20191;-71
2021/06/27 04:49:08;;;;;;;1999.90;999.90;;;18.90;99.90;;;;;;5034233;28;20169;-71
2021/06/27 04:51:35;;;;;;;1999.90;999.90;;;18.90;99.90;;;;;;5033969;28;20202;-71
2021/06/27 04:54:01;;;;;;;1999.90;999.90;;;18.90;99.90;;;;;;5033781;28;20465;-71
2021/06/27 04:56:27;;;;;;;1999.90;999.90;;;18.90;99.90;;;;;;5034085;28;20418;-71
2021/06/27 04:58:52;;;;;;;1999.90;999.90;;;18.70;99.90;;;;;;5034037;28;20407;-71
2021/06/27 05:01:18;;;;;;;1999.90;999.90;;;18.70;99.90;;;;;;5034000;28;20195;-71
2021/06/27 05:03:43;;;;;;;1999.90;999.90;;;18.70;99.90;;;;;;5033300;28;20213;-71
2021/06/27 05:06:09;;;;;;;1999.90;999.90;;;18.80;99.90;;;;;;5033810;28;20180;-71
2021/06/27 05:08:35;;;;;;;1999.90;999.90;;;18.90;99.90;;;;;;5033872;28;20181;-71
2021/06/27 05:11:01;;;;;;;1999.90;999.90;;;19.00;99.90;;;;;;5033761;28;20209;-71
2021/06/27 05:13:26;;;;;;;1999.90;999.90;;;19.00;99.90;;;;;;5033746;28;20190;-71
2021/06/27 05:15:52;;;;;;;1999.90;999.90;;;19.10;99.90;;;;;;5033520;28;20416;-71
2021/06/27 05:18:19;;;;;;;1999.90;999.90;;;19.30;99.90;;;;;;5033713;28;20641;-70
2021/06/27 05:20:46;;;;;;;1999.90;999.90;;;19.40;99.90;;;;;;5033374;28;20219;-71
2021/06/27 05:23:12;;;;;;;1999.90;999.90;;;19.60;99.90;;;;;;5033624;28;20422;-71
2021/06/27 05:25:37;;;;;;;1999.90;999.90;;;19.70;99.90;;;;;;5033250;28;20416;-71
2021/06/27 05:28:03;;;;;;;1999.90;999.90;;;19.80;99.90;;;;;;5033560;28;20674;-71
2021/06/27 05:30:29;;;;;;;1999.90;999.90;;;19.90;99.90;;;;;;5033485;28;20209;-71
2021/06/27 05:32:54;;;;;;;1999.90;999.90;;;20.00;99.90;;;;;;5033289;28;20186;-72
2021/06/27 05:35:20;;;;;;;1999.90;999.90;;;20.10;99.90;;;;;;5031812;28;20309;-71
2021/06/27 05:37:46;;;;;;;1999.90;999.90;;;20.20;99.90;;;;;;5033311;28;20171;-71
2021/06/27 05:40:12;;;;;;;1999.90;999.90;;;20.30;99.90;;;;;;5033212;28;20192;-71
2021/06/27 05:42:38;;;;;;;1999.90;999.90;;;20.30;99.90;;;;;;5033239;28;20527;-72
2021/06/27 05:45:05;;;;;;;1999.90;999.90;;;20.50;99.90;;;;;;5032974;28;20439;-71
2021/06/27 05:47:30;;;;;;;1999.90;999.90;;;20.60;99.90;;;;;;5033043;28;20447;-71
2021/06/27 05:49:56;;;;;;;1999.90;999.90;;;20.70;99.90;;;;;;5032901;28;20460;-71
2021/06/27 05:52:21;;;;;;;1999.90;999.90;;;20.80;99.90;;;;;;5033038;28;20172;-71
2021/06/27 05:54:47;;;;;;;1999.90;999.90;;;20.90;99.90;;;;;;5032698;28;20204;-72
2021/06/27 05:57:13;;;;;;;1999.90;999.90;;;21.00;99.90;;;;;;5032922;28;20233;-71
2021/06/27 05:59:39;;;;;;;1999.90;999.90;;;21.10;99.90;;;;;;5032769;28;20171;-72
2021/06/27 06:02:04;;;;;;;1999.90;999.90;;;21.30;99.90;;;;;;5032847;28;20628;-71
2021/06/27 06:04:30;;;;;;;1999.90;999.90;;;21.30;99.90;;;;;;5032515;28;20631;-71
2021/06/27 06:06:56;;;;;;;1999.90;999.90;;;21.20;99.90;;;;;;5032892;28;20180;-71
2021/06/27 06:09:21;;;;;;;1999.90;999.90;;;21.30;99.90;;;;;;5032763;28;20585;-71
2021/06/27 06:11:47;;;;;;;1999.90;999.90;;;21.40;99.90;;;;;;5032675;28;20207;-71
2021/06/27 06:14:13;;;;;;;1999.90;999.90;;;21.60;99.90;;;;;;5031512;28;20237;-71
2021/06/27 06:16:38;;;;;;;1999.90;999.90;;;21.60;99.90;;;;;;5032644;28;20184;-71
2021/06/27 06:19:04;;;;;;;1999.90;999.90;;;21.70;99.90;;;;;;5032503;28;20417;-72
2021/06/27 06:21:30;;;;;;;1999.90;999.90;;;21.70;99.90;;;;;;5032395;28;20291;-72
2021/06/27 06:23:55;;;;;;;1999.90;999.90;;;21.80;99.90;;;;;;5032223;28;20181;-72
2021/06/27 06:26:21;;;;;;;1999.90;999.90;;;21.90;99.90;;;;;;5032404;28;20174;-72
2021/06/27 06:28:47;;;;;;;1999.90;999.90;;;22.00;99.90;;;;;;5032401;28;20300;-71
2021/06/27 06:31:12;;;;;;;1999.90;999.90;;;22.00;99.90;;;;;;5032289;28;20205;-71
2021/06/27 06:33:38;;;;;;;1999.90;999.90;;;22.00;99.90;;;;;;5032192;28;20206;-71
2021/06/27 06:36:04;;;;;;;1999.90;999.90;;;21.90;99.90;;;;;;5031800;28;20173;-71
2021/06/27 06:38:30;;;;;;;1999.90;999.90;;;22.00;99.90;;;;;;5032273;28;20184;-71
2021/06/27 06:40:56;;;;;;;1999.90;999.90;;;22.20;99.90;;;;;;5032160;28;20425;-72
2021/06/27 06:43:21;;;;;;;1999.90;999.90;;;22.40;99.90;;;;;;5032234;28;20178;-72
2021/06/27 06:45:47;;;;;;;1999.90;999.90;;;22.60;99.90;;;;;;5031802;28;20182;-71
2021/06/27 06:48:12;;;;;;;1999.90;999.90;;;22.80;99.90;;;;;;5032064;28;20206;-71
2021/06/27 06:50:38;;;;;;;1999.90;999.90;;;23.00;99.90;;;;;;5031926;28;20200;-71
2021/06/27 06:53:04;;;;;;;1999.90;999.90;;;23.00;99.90;;;;;;5031945;28;20175;-71
2021/06/27 06:55:29;;;;;;;1999.90;999.90;;;23.10;99.90;;;;;;5031876;28;20182;-71
2021/06/27 06:57:55;;;;;;;1999.90;999.90;;;23.10;99.90;;;;;;5031988;28;20544;-70
2021/06/27 07:00:21;;;;;;;1999.90;999.90;;;23.20;99.90;;;;;;5031925;28;20348;-71
2021/06/27 07:02:47;;;;;;;1999.90;999.90;;;23.20;99.90;;;;;;5031895;28;20900;-71
2021/06/27 07:05:13;;;;;;;1999.90;999.90;;;23.10;99.90;;;;;;5031619;28;20468;-71
2021/06/27 07:07:40;;;;;;;1999.90;999.90;;;23.10;99.90;;;;;;5031908;28;20167;-71
2021/06/27 07:10:07;;;;;;;1999.90;999.90;;;23.00;99.90;;;;;;5031807;28;20203;-71
2021/06/27 07:12:33;;;;;;;1999.90;999.90;;;23.10;99.90;;;;;;5031774;28;20381;-71
2021/06/27 07:14:58;;;;;;;1999.90;999.90;;;23.10;99.90;;;;;;5031469;28;20455;-71
2021/06/27 07:17:25;;;;;;;1999.90;999.90;;;23.20;99.90;;;;;;5031743;28;20906;-71
2021/06/27 07:19:50;;;;;;;1999.90;999.90;;;23.30;99.90;;;;;;5031690;28;20794;-71
2021/06/27 07:22:16;;;;;;;1999.90;999.90;;;23.50;99.90;;;;;;5031771;28;20410;-71
2021/06/27 07:24:41;;;;;;;1999.90;999.90;;;23.60;99.90;;;;;;5031503;28;20207;-71
2021/06/27 07:27:07;;;;;;;1999.90;999.90;;;23.70;99.90;;;;;;5035051;28;20222;-71
2021/06/27 07:29:33;;;;;;;1999.90;999.90;;;23.80;99.90;;;;;;5035674;28;20229;-71
2021/06/27 07:31:59;;;;;;;1999.90;999.90;;;23.80;99.90;;;;;;5035781;28;20211;-72
2021/06/27 07:34:25;;;;;;;1999.90;999.90;;;23.90;99.90;;;;;;5035529;28;20460;-71
2021/06/27 07:36:51;;;;;;;1999.90;999.90;;;23.90;99.90;;;;;;5035922;28;20180;-71
2021/06/27 07:39:17;;;;;;;1999.90;999.90;;;24.00;99.90;;;;;;5036111;28;20419;-72
2021/06/27 07:41:42;;;;;;;1999.90;999.90;;;24.20;99.90;;;;;;5036176;28;20551;-71
2021/06/27 07:44:08;;;;;;;1999.90;999.90;;;24.30;99.90;;;;;;5035518;28;20630;-72
2021/06/27 07:46:33;;;;;;;1999.90;999.90;;;24.40;99.90;;;;;;5035842;28;20175;-71
2021/06/27 07:48:59;;;;;;;1999.90;999.90;;;24.50;99.90;;;;;;5035523;28;20172;-71
2021/06/27 07:51:25;;;;;;;1999.90;999.90;;;24.60;99.90;;;;;;5035591;28;20684;-72
2021/06/27 07:53:51;;;;;;;1999.90;999.90;;;24.60;99.90;;;;;;5035301;28;20200;-70
2021/06/27 07:56:17;;;;;;;1999.90;999.90;;;24.70;99.90;;;;;;5035485;28;20192;-72
2021/06/27 07:58:42;;;;;;;1999.90;999.90;;;24.80;99.90;;;;;;5035621;28;20167;-72
2021/06/27 08:01:08;;;;;;;1999.90;999.90;;;24.90;99.90;;;;;;5035700;28;20510;-71
2021/06/27 08:03:33;;;;;;;1999.90;999.90;;;25.10;99.90;;;;;;5035636;28;20179;-71
2021/06/27 08:05:59;;;;;;;1999.90;999.90;;;25.20;99.90;;;;;;5035388;28;20180;-71
2021/06/27 08:08:24;;;;;;;1999.90;999.90;;;25.40;99.90;;;;;;5035148;28;20173;-72
2021/06/27 08:10:50;;;;;;;1999.90;999.90;;;25.60;99.90;;;;;;5035002;28;20282;-71
2021/06/27 08:13:16;;;;;;;1999.90;999.90;;;25.80;99.90;;;;;;5034873;28;20199;-71
2021/06/27 08:15:41;;;;;;;1999.90;999.90;;;25.90;99.90;;;;;;5034701;28;20173;-71
2021/06/27 08:18:07;;;;;;;1999.90;999.90;;;26.00;99.90;;;;;;5034782;28;20188;-72
2021/06/27 08:20:33;;;;;;;1999.90;999.90;;;26.10;99.90;;;;;;5034647;28;20258;-71
2021/06/27 08:22:59;;;;;;;1999.90;999.90;;;26.20;99.90;;;;;;5034911;28;20852;-72
2021/06/27 08:25:25;;;;;;;1999.90;999.90;;;26.30;99.90;;;;;;5034521;28;20495;-72
2021/06/27 08:27:51;;;;;;;1999.90;999.90;;;26.40;99.90;;;;;;5034777;28;20251;-71
2021/06/27 08:30:18;;;;;;;1999.90;999.90;;;26.50;99.90;;;;;;5034503;28;20191;-71
2021/06/27 08:32:45;;;;;;;1999.90;999.90;;;26.50;99.90;;;;;;5034463;28;20409;-71
2021/06/27 08:35:12;;;;;;;1999.90;999.90;;;26.50;99.90;;;;;;5034353;28;20442;-71
2021/06/27 08:37:38;;;;;;;1999.90;999.90;;;26.50;99.90;;;;;;5033682;28;20378;-71
2021/06/27 08:40:04;;;;;;;1999.90;999.90;;;26.50;99.90;;;;;;5034449;28;20502;-71
2021/06/27 08:42:31;;;;;;;1999.90;999.90;;;26.60;99.90;;;;;;5031821;28;20176;-70
2021/06/27 08:44:56;;;;;;;1999.90;999.90;;;26.60;99.90;;;;;;5033267;28;20475;-71
2021/06/27 08:47:22;;;;;;;1999.90;999.90;;;26.70;99.90;;;;;;5033358;28;20960;-72
2021/06/27 08:49:49;;;;;;;1999.90;999.90;;;26.80;99.90;;;;;;5033575;28;20160;-71
2021/06/27 08:52:17;;;;;;;1999.90;999.90;;;27.00;99.90;;;;;;5033534;28;20588;-71
2021/06/27 08:54:44;;;;;;;1999.90;999.90;;;27.00;99.90;;;;;;5032948;28;20424;-72
2021/06/27 08:57:13;;;;;;;1999.90;999.90;;;27.00;99.90;;;;;;5033397;28;20460;-72
2021/06/27 08:59:39;;;;;;;1999.90;999.90;;;27.00;99.90;;;;;;5033372;28;20374;-71
2021/06/27 09:02:05;;;;;;;1999.90;999.90;;;27.20;99.90;;;;;;5032539;28;20469;-72
2021/06/27 09:04:34;;;;;;;1999.90;999.90;;;27.20;99.90;;;;;;5028868;28;20411;-71
2021/06/27 09:07:26;;;;;;;1999.90;999.90;;;27.30;99.90;;;;;;5032061;28;20439;-67
2021/06/27 09:09:52;;;;;;;1999.90;999.90;;;27.20;99.90;;;;;;5031853;28;20426;-69
2021/06/27 09:12:17;;;;;;;1999.90;999.90;;;27.30;99.90;;;;;;5032416;28;20381;-69
2021/06/27 09:14:45;;;;;;;1999.90;999.90;;;27.40;99.90;;;;;;5027585;28;20250;-69
2021/06/27 09:17:18;;;;;;;1999.90;999.90;;;27.60;99.90;;;;;;5024524;28;20608;-68
2021/06/27 09:19:55;;;;;;;1999.90;999.90;;;27.70;99.90;;;;;;5029278;28;20423;-70
2021/06/27 09:22:33;;;;;;;1999.90;999.90;;;27.90;99.90;;;;;;5028389;28;20919;-71
2021/06/27 09:25:13;;;;;;;1999.90;999.90;;;28.10;99.90;;;;;;5027626;28;20760;-69
2021/06/27 09:27:40;;;;;;;1999.90;999.90;;;28.10;99.90;;;;;;5028790;28;20425;-69
2021/06/27 09:30:17;;;;;;;1999.90;999.90;;;28.20;99.90;;;;;;5030162;28;20439;-69
2021/06/27 09:33:30;;;;;;;1999.90;999.90;;;28.40;99.90;;;;;;5029998;28;20418;-69
2021/06/27 09:36:02;;;;;;;1999.90;999.90;;;28.70;99.90;;;;;;5006983;28;20424;-69
2021/06/27 09:38:33;;;;;;;1999.90;999.90;;;28.80;99.90;;;;;;5028691;28;20577;-69
2021/06/27 09:41:00;;;;;;;1999.90;999.90;;;29.10;99.90;;;;;;5029619;28;20436;-68
2021/06/27 09:43:28;;;;;;;1999.90;999.90;;;29.10;99.90;;;;;;5030203;28;20407;-68
2021/06/27 09:45:59;;;;;;;1999.90;999.90;;;29.20;99.90;;;;;;5029965;28;20537;-69
2021/06/27 09:48:26;;;;;;;1999.90;999.90;;;29.40;99.90;;;;;;5029490;28;20468;-71
2021/06/27 09:50:53;;;;;;;1999.90;999.90;;;29.50;99.90;;;;;;5029929;28;20573;-71
2021/06/27 09:53:33;;;;;;;1999.90;999.90;;;29.50;99.90;;;;;;5029896;28;20447;-69
2021/06/27 09:56:00;;;;;;;1999.90;999.90;;;29.70;99.90;;;;;;5028978;28;20415;-70
2021/06/27 09:58:26;;;;;;;1999.90;999.90;;;29.70;99.90;;;;;;5029636;28;20386;-69
2021/06/27 10:00:52;;;;;;;1999.90;999.90;;;29.70;99.90;;;;;;5030151;28;20434;-69
2021/06/27 10:03:18;;;;;;;1999.90;999.90;;;29.70;99.90;;;;;;5029515;28;20901;-69
2021/06/27 10:05:44;;;;;;;1999.90;999.90;;;29.80;99.90;;;;;;5029728;28;20413;-69
2021/06/27 10:08:27;;;;;;;1999.90;999.90;;;29.80;99.90;;;;;;5030047;28;20156;-69
2021/06/27 10:11:18;;;;;;;1999.90;999.90;;;29.90;99.90;;;;;;5029886;28;20236;-69
2021/06/27 10:13:49;;;;;;;1999.90;999.90;;;29.90;99.90;;;;;;5027148;28;20521;-69
2021/06/27 10:16:36;;;;;;;1999.90;999.90;;;30.00;99.90;;;;;;5029283;28;20396;-69
2021/06/27 10:19:02;;;;;;;1999.90;999.90;;;30.20;99.90;;;;;;5029483;28;20411;-69
2021/06/27 10:21:30;;;;;;;1999.90;999.90;;;30.30;99.90;;;;;;5030098;28;21039;-69
2021/06/27 10:23:57;;;;;;;1999.90;999.90;;;30.40;99.90;;;;;;5029251;28;20410;-69
2021/06/27 10:26:25;;;;;;;1999.90;999.90;;;30.60;99.90;;;;;;5029788;28;20442;-69
2021/06/27 10:28:52;;;;;;;1999.90;999.90;;;30.80;99.90;;;;;;5028913;28;20411;-69
2021/06/27 10:31:22;;;;;;;1999.90;999.90;;;30.80;99.90;;;;;;5028739;28;20466;-69
2021/06/27 10:33:48;;;;;;;1999.90;999.90;;;31.00;99.90;;;;;;5009375;28;20439;-69
2021/06/27 10:36:25;;;;;;;1999.90;999.90;;;31.20;99.90;;;;;;5009372;28;20408;-69
2021/06/27 10:38:52;;;;;;;1999.90;999.90;;;31.30;99.90;;;;;;5009078;28;20395;-69
2021/06/27 10:41:18;;;;;;;1999.90;999.90;;;31.30;99.90;;;;;;5009375;28;20529;-69
2021/06/27 10:44:01;;;;;;;1999.90;999.90;;;31.40;99.90;;;;;;5009368;28;20458;-69
2021/06/27 10:46:47;;;;;;;1999.90;999.90;;;31.70;99.90;;;;;;5009040;28;20173;-69
2021/06/27 10:49:32;;;;;;;1999.90;999.90;;;31.70;99.90;;;;;;5008874;28;20392;-69
2021/06/27 10:52:02;;;;;;;1999.90;999.90;;;31.50;99.90;;;;;;5008972;28;20835;-69
2021/06/27 10:55:17;;;;;;;1999.90;999.90;;;31.30;99.90;;;;;;5008479;28;20880;-69
2021/06/27 10:58:13;;;;;;;1999.90;999.90;;;31.40;99.90;;;;;;4999986;28;20862;-69
2021/06/27 11:00:54;;;;;;;1999.90;999.90;;;31.50;99.90;;;;;;5003644;28;20446;-69
2021/06/27 11:03:40;;;;;;;1999.90;999.90;;;31.70;99.90;;;;;;5009042;28;20422;-69
2021/06/27 11:06:26;;;;;;;1999.90;999.90;;;31.90;99.90;;;;;;5008911;28;20449;-69
2021/06/27 11:09:08;;;;;;;1999.90;999.90;;;31.80;99.90;;;;;;5004124;28;20451;-69
2021/06/27 11:11:52;;;;;;;1999.90;999.90;;;31.80;99.90;;;;;;5009069;28;20873;-69
2021/06/27 11:14:18;;;;;;;1999.90;999.90;;;31.80;99.90;;;;;;5008527;28;20436;-69
2021/06/27 11:17:13;;;;;;;1999.90;999.90;;;31.80;99.90;;;;;;5008136;28;20944;-69
2021/06/27 11:19:41;;;;;;;1999.90;999.90;;;32.20;99.90;;;;;;5008683;28;20260;-69
2021/06/27 11:22:19;;;;;;;1999.90;999.90;;;32.50;99.90;;;;;;5009312;28;20967;-69
2021/06/27 11:24:48;;;;;;;1999.90;999.90;;;32.80;99.90;;;;;;5008464;28;20884;-69
2021/06/27 11:27:39;;;;;;;1999.90;999.90;;;32.50;99.90;;;;;;5008883;28;21214;-69
2021/06/27 11:30:26;;;;;;;1999.90;999.90;;;32.50;99.90;;;;;;5008205;28;20428;-69
2021/06/27 11:32:52;;;;;;;1999.90;999.90;;;32.20;99.90;;;;;;5009284;28;20438;-71
2021/06/27 11:35:54;;;;;;;1999.90;999.90;;;32.10;99.90;;;;;;5008554;28;20447;-71
2021/06/27 11:38:36;;;;;;;1999.90;999.90;;;31.90;99.90;;;;;;4994795;28;20422;-71
2021/06/27 11:41:07;;;;;;;1999.90;999.90;;;32.00;99.90;;;;;;5020386;28;20706;-71
2021/06/27 11:43:53;;;;;;;1999.90;999.90;;;31.80;99.80;;;;;;5028503;28;20753;-71
2021/06/27 11:46:28;;;;;;;1999.90;999.90;;;31.90;99.90;;;;;;5027885;28;20397;-72
2021/06/27 11:48:55;;;;;;;1999.90;999.90;;;32.00;99.90;;;;;;5028282;28;20421;-71
2021/06/27 11:51:41;;;;;;;1999.90;999.90;;;31.90;99.90;;;;;;5025104;28;20458;-71
2021/06/27 11:54:08;;;;;;;1999.90;999.90;;;31.90;99.90;;;;;;5027586;28;20998;-71
2021/06/27 11:56:52;;;;;;;1999.90;999.90;;;32.00;99.90;;;;;;5027757;28;20506;-71
2021/06/27 11:59:20;;;;;;;1999.90;999.90;;;32.00;99.90;;;;;;5028001;28;20403;-71
2021/06/27 12:02:04;;;;;;;1999.90;999.90;;;32.00;99.90;;;;;;5025808;28;20450;-71
2021/06/27 12:04:50;;;;;;;1999.90;999.90;;;32.00;99.90;;;;;;5025684;28;20413;-71